Time;durP1;ratioP1;P1;durP2;ratioP2;P2;SDS_P1;SDS_P2;PMS_P1;PMS_P2;Temp;Humidity;BMP_temperature;BMP_pressure;BME280_temperature;BME280_humidity;BME280_pressure;Samples;Min_cycle;Max_cycle;Signal;HPM_P1;HPM_P2
2022/01/16 00:01:42;;;;;;;10.50;9.40;;;22.50;68.00;;;;;;6216906;28;88686;-73
2022/01/16 00:04:43;;;;;;;11.15;9.57;;;22.50;68.10;;;;;;6227121;28;89274;-73
2022/01/16 00:07:47;;;;;;;10.40;9.27;;;22.50;67.90;;;;;;6226194;28;89321;-73
2022/01/16 00:10:49;;;;;;;9.93;8.60;;;22.50;67.80;;;;;;6227771;28;90650;-72
2022/01/16 00:13:51;;;;;;;9.82;8.93;;;22.60;67.90;;;;;;6225438;28;89125;-72
2022/01/16 00:16:53;;;;;;;9.88;8.88;;;22.50;68.00;;;;;;6220355;28;89393;-71
2022/01/16 00:19:55;;;;;;;9.90;8.60;;;22.50;68.10;;;;;;6221013;28;89110;-72
2022/01/16 00:22:59;;;;;;;9.80;8.80;;;22.60;69.00;;;;;;6222253;28;88014;-72
2022/01/16 00:26:01;;;;;;;11.27;8.70;;;22.60;68.00;;;;;;6230501;28;89112;-73
2022/01/16 00:29:04;;;;;;;11.18;8.60;;;22.60;68.00;;;;;;6231504;28;88969;-73
2022/01/16 00:32:07;;;;;;;10.43;8.45;;;22.50;68.10;;;;;;6233696;28;88305;-71
2022/01/16 00:35:11;;;;;;;10.05;8.85;;;22.60;68.20;;;;;;6230637;28;89169;-71
2022/01/16 00:38:14;;;;;;;9.85;8.85;;;22.60;68.20;;;;;;6235639;28;89077;-72
2022/01/16 00:41:19;;;;;;;8.90;8.00;;;22.60;68.30;;;;;;6220741;28;88890;-72
2022/01/16 00:44:22;;;;;;;9.15;8.25;;;22.60;68.10;;;;;;6236692;28;88298;-72
2022/01/16 00:47:23;;;;;;;10.27;8.30;;;22.60;67.80;;;;;;6234334;28;87808;-72
2022/01/16 00:50:25;;;;;;;9.20;8.07;;;22.60;67.50;;;;;;6222388;28;89065;-72
2022/01/16 00:53:29;;;;;;;9.43;7.78;;;22.60;67.40;;;;;;6229104;28;89052;-71
2022/01/16 00:56:31;;;;;;;8.65;7.75;;;22.60;67.50;;;;;;6228025;28;89107;-72
2022/01/16 00:59:33;;;;;;;8.88;7.97;;;22.60;67.40;;;;;;6235620;28;87906;-71
2022/01/16 01:02:35;;;;;;;9.13;7.70;;;22.60;67.40;;;;;;6236855;28;88605;-70
2022/01/16 01:05:55;;;;;;;9.98;7.68;;;22.60;67.30;;;;;;6236367;28;88989;-71
2022/01/16 01:08:59;;;;;;;10.32;7.38;;;22.60;67.20;;;;;;6216963;28;89124;-71
2022/01/16 01:12:03;;;;;;;8.57;7.70;;;22.60;67.20;;;;;;6234115;28;89400;-70
2022/01/16 01:15:07;;;;;;;9.55;7.55;;;22.60;67.30;;;;;;6234201;28;89405;-71
2022/01/16 01:18:10;;;;;;;7.50;6.80;;;22.60;67.30;;;;;;6221459;28;89404;-72
2022/01/16 01:21:24;;;;;;;8.50;7.30;;;22.60;67.30;;;;;;6230662;28;89120;-72
2022/01/16 01:24:29;;;;;;;8.15;7.35;;;22.60;67.30;;;;;;6233523;28;89501;-72
2022/01/16 01:27:33;;;;;;;8.70;7.07;;;22.60;67.20;;;;;;6234625;28;89383;-71
2022/01/16 01:30:37;;;;;;;8.90;7.25;;;22.60;67.30;;;;;;6233852;28;89048;-71
2022/01/16 01:33:39;;;;;;;8.00;6.88;;;22.60;67.30;;;;;;6228198;28;88502;-71
2022/01/16 01:36:41;;;;;;;7.45;6.75;;;22.60;67.20;;;;;;6231577;28;89315;-72
2022/01/16 01:40:04;;;;;;;9.07;6.68;;;22.60;67.20;;;;;;6233706;28;89092;-72
2022/01/16 01:53:01;;;;;;;7.50;6.78;;;22.50;67.00;;;;;;6211712;28;87673;-71
2022/01/16 01:56:07;;;;;;;7.10;6.40;;;22.60;66.90;;;;;;6233515;28;89105;-71
2022/01/16 01:59:10;;;;;;;6.50;5.90;;;22.60;66.90;;;;;;6233558;28;88310;-72
2022/01/16 02:02:14;;;;;;;8.50;6.43;;;22.60;66.90;;;;;;6222395;28;89611;-72
2022/01/16 02:05:16;;;;;;;6.68;6.00;;;22.60;66.90;;;;;;6233579;28;88487;-71
2022/01/16 02:08:19;;;;;;;7.18;6.47;;;22.60;66.90;;;;;;6216579;28;89110;-72
2022/01/16 02:11:25;;;;;;;6.68;5.97;;;22.60;66.90;;;;;;6223449;28;89053;-72
2022/01/16 02:14:28;;;;;;;6.60;6.00;;;22.60;67.00;;;;;;6218523;28;88903;-72
2022/01/16 02:31:14;;;;;;;6.38;5.72;;;22.50;66.90;;;;;;6219653;28;87187;-71
2022/01/16 02:34:30;;;;;;;6.72;6.07;;;22.50;66.90;;;;;;6232336;28;88984;-71
2022/01/16 02:37:33;;;;;;;6.45;5.85;;;22.50;66.90;;;;;;6234469;28;87219;-72
2022/01/16 02:40:38;;;;;;;6.50;5.90;;;22.50;66.90;;;;;;6231904;28;89260;-71
2022/01/16 02:43:46;;;;;;;6.30;5.38;;;22.50;66.90;;;;;;6232267;28;88938;-72
2022/01/16 02:46:48;;;;;;;6.45;5.47;;;22.50;66.90;;;;;;6232241;28;90390;-72
2022/01/16 02:49:50;;;;;;;6.43;5.82;;;22.50;66.90;;;;;;6230182;28;89131;-72
2022/01/16 02:52:52;;;;;;;6.20;5.40;;;22.50;66.80;;;;;;6231350;28;89024;-72
2022/01/16 02:55:56;;;;;;;5.57;5.07;;;22.50;66.80;;;;;;6233658;28;89161;-71
2022/01/16 02:58:57;;;;;;;6.05;5.45;;;22.50;66.90;;;;;;6231996;28;89022;-69
2022/01/16 03:02:00;;;;;;;6.80;5.93;;;22.50;66.80;;;;;;6231365;28;89186;-70
2022/01/16 03:05:03;;;;;;;5.82;5.13;;;22.50;66.80;;;;;;6232313;28;89555;-70
2022/01/16 03:08:06;;;;;;;6.00;5.50;;;22.50;66.90;;;;;;6232835;28;88378;-70
2022/01/16 03:11:22;;;;;;;5.55;5.05;;;22.50;66.80;;;;;;6230767;28;89170;-70
2022/01/16 03:14:24;;;;;;;5.70;5.10;;;22.50;66.80;;;;;;6232947;28;88045;-70
2022/01/16 03:17:37;;;;;;;6.15;5.63;;;22.50;67.70;;;;;;6232522;28;88053;-70
2022/01/16 03:23:59;;;;;;;5.93;5.32;;;22.50;66.90;;;;;;6231792;28;87396;-70
2022/01/16 03:27:06;;;;;;;6.55;5.68;;;22.50;66.90;;;;;;6232189;28;89411;-69
2022/01/16 03:30:10;;;;;;;5.30;4.80;;;22.50;66.80;;;;;;6217363;28;89100;-69
2022/01/16 03:33:13;;;;;;;6.05;5.45;;;22.50;66.80;;;;;;6220307;28;89025;-70
2022/01/16 03:36:15;;;;;;;5.95;5.40;;;22.50;66.80;;;;;;6215298;28;89061;-70
2022/01/16 03:39:17;;;;;;;6.13;5.53;;;22.50;66.70;;;;;;6232716;28;87715;-70
2022/01/16 03:42:26;;;;;;;6.03;5.38;;;22.50;66.80;;;;;;6232937;28;89131;-68
2022/01/16 03:45:28;;;;;;;6.05;5.50;;;22.50;66.70;;;;;;6221047;28;89262;-70
2022/01/16 03:48:30;;;;;;;5.70;5.20;;;22.50;66.70;;;;;;6219704;28;90464;-70
2022/01/16 03:51:33;;;;;;;5.60;4.97;;;22.50;66.70;;;;;;6232658;28;89115;-69
2022/01/16 03:54:35;;;;;;;5.68;5.15;;;22.50;66.70;;;;;;6230469;28;88236;-70
2022/01/16 03:57:38;;;;;;;5.38;4.88;;;22.50;66.70;;;;;;6232811;28;89351;-70
2022/01/16 04:00:40;;;;;;;5.30;4.90;;;22.50;66.70;;;;;;6231742;28;88740;-69
2022/01/16 04:03:42;;;;;;;4.95;4.55;;;22.50;66.70;;;;;;6230966;28;89109;-70
2022/01/16 04:06:45;;;;;;;5.32;4.82;;;22.50;66.70;;;;;;6216465;28;89141;-69
2022/01/16 04:09:47;;;;;;;5.00;4.55;;;22.50;66.60;;;;;;6232374;28;88711;-70
2022/01/16 04:12:50;;;;;;;5.50;5.00;;;22.50;66.60;;;;;;6232291;28;89068;-70
2022/01/16 04:15:52;;;;;;;5.22;4.68;;;22.50;66.70;;;;;;6230474;28;87955;-69
2022/01/16 04:18:54;;;;;;;5.18;4.68;;;22.50;66.60;;;;;;6217279;28;90288;-70
2022/01/16 04:21:56;;;;;;;5.25;4.75;;;22.50;66.60;;;;;;6206421;28;88441;-70
2022/01/16 04:24:59;;;;;;;5.28;4.78;;;22.50;66.60;;;;;;6230155;28;89204;-69
2022/01/16 04:28:02;;;;;;;5.45;4.95;;;22.50;66.60;;;;;;6230425;28;88977;-70
2022/01/16 04:31:04;;;;;;;5.05;4.60;;;22.50;66.60;;;;;;6230971;28;89125;-70
2022/01/16 04:34:06;;;;;;;5.10;4.60;;;22.50;66.50;;;;;;6231892;28;88123;-70
2022/01/16 04:37:09;;;;;;;5.43;4.93;;;22.50;66.50;;;;;;6230183;28;89021;-70
2022/01/16 04:40:12;;;;;;;5.40;4.75;;;22.50;66.40;;;;;;6230353;28;88325;-70
2022/01/16 04:46:35;;;;;;;5.20;4.70;;;22.50;66.40;;;;;;6218771;28;87099;-70
2022/01/16 04:49:37;;;;;;;5.32;4.82;;;22.50;66.40;;;;;;6230669;28;90099;-70
2022/01/16 04:52:40;;;;;;;4.78;4.30;;;22.50;66.40;;;;;;6229836;28;89099;-70
2022/01/16 04:55:43;;;;;;;5.78;4.68;;;22.50;66.40;;;;;;6230365;28;89188;-70
2022/01/16 04:58:47;;;;;;;5.20;4.70;;;22.50;66.40;;;;;;6213974;28;89072;-69
2022/01/16 05:01:49;;;;;;;4.40;4.10;;;22.50;66.40;;;;;;6217590;28;87993;-70
2022/01/16 05:04:50;;;;;;;4.80;4.40;;;22.50;66.40;;;;;;6222573;28;89369;-70
2022/01/16 05:07:52;;;;;;;5.20;4.68;;;22.50;66.40;;;;;;6231102;28;90007;-69
2022/01/16 05:10:57;;;;;;;5.18;4.53;;;22.50;66.40;;;;;;6228640;28;88674;-70
2022/01/16 05:17:20;;;;;;;4.90;4.40;;;22.50;66.40;;;;;;6234848;28;87390;-70
2022/01/16 05:20:22;;;;;;;4.65;4.25;;;22.50;66.40;;;;;;6232070;28;90305;-70
2022/01/16 05:23:24;;;;;;;5.10;4.70;;;22.50;66.40;;;;;;6235655;28;89042;-68
2022/01/16 05:26:28;;;;;;;4.97;4.53;;;22.50;66.40;;;;;;6233824;28;89107;-69
2022/01/16 05:29:31;;;;;;;5.38;4.72;;;22.50;66.40;;;;;;6235505;28;87822;-69
2022/01/16 05:32:33;;;;;;;4.53;4.13;;;22.50;66.40;;;;;;6234379;28;89380;-70
2022/01/16 05:35:35;;;;;;;4.70;4.30;;;22.50;66.30;;;;;;6232712;28;89111;-70
2022/01/16 05:38:37;;;;;;;4.90;4.40;;;22.60;66.40;;;;;;6233069;28;88180;-69
2022/01/16 05:41:39;;;;;;;4.85;4.45;;;22.50;66.20;;;;;;6234530;28;89163;-69
2022/01/16 05:44:43;;;;;;;5.00;4.50;;;22.50;66.20;;;;;;6232531;28;89167;-70
2022/01/16 05:47:45;;;;;;;4.60;4.20;;;22.50;66.30;;;;;;6214047;28;89737;-69
2022/01/16 05:50:47;;;;;;;4.85;4.45;;;22.50;66.20;;;;;;6213441;28;90284;-70
2022/01/16 05:53:51;;;;;;;4.93;4.40;;;22.50;66.30;;;;;;6217415;28;89545;-69
2022/01/16 05:56:53;;;;;;;4.78;4.35;;;22.50;66.20;;;;;;6220745;28;89441;-70
2022/01/16 05:59:56;;;;;;;4.70;4.20;;;22.50;66.30;;;;;;6210569;28;89022;-69
2022/01/16 06:02:58;;;;;;;5.10;4.60;;;22.50;66.30;;;;;;6232939;28;89575;-70
2022/01/16 06:06:00;;;;;;;4.82;4.43;;;22.50;66.30;;;;;;6220862;28;89116;-70
2022/01/16 06:09:03;;;;;;;4.60;4.20;;;22.50;66.20;;;;;;6234086;28;88696;-69
2022/01/16 06:12:06;;;;;;;4.80;4.38;;;22.50;66.30;;;;;;6233094;28;88277;-69
2022/01/16 06:15:09;;;;;;;4.40;3.95;;;22.50;66.30;;;;;;6233387;28;87999;-69
2022/01/16 06:18:11;;;;;;;4.45;4.05;;;22.50;66.20;;;;;;6233708;28;89092;-70
2022/01/16 06:21:13;;;;;;;5.18;4.68;;;22.50;66.20;;;;;;6229523;28;88965;-69
2022/01/16 06:24:15;;;;;;;4.28;3.88;;;22.50;66.20;;;;;;6208653;28;89056;-69
2022/01/16 06:27:17;;;;;;;5.10;4.60;;;22.50;66.20;;;;;;6209113;28;89049;-70
2022/01/16 06:30:21;;;;;;;4.80;4.40;;;22.50;66.10;;;;;;6234128;28;89070;-71
2022/01/16 06:33:24;;;;;;;4.68;4.28;;;22.50;66.10;;;;;;6232123;28;88981;-70
2022/01/16 06:36:26;;;;;;;4.75;4.35;;;22.50;66.20;;;;;;6218186;28;89398;-70
2022/01/16 06:39:29;;;;;;;4.63;4.18;;;22.50;66.20;;;;;;6227387;28;87865;-68
2022/01/16 06:42:31;;;;;;;4.55;4.15;;;22.50;66.20;;;;;;6228277;28;88395;-70
2022/01/16 06:45:34;;;;;;;4.60;4.20;;;22.50;66.20;;;;;;6221820;28;89067;-70
2022/01/16 06:48:37;;;;;;;5.03;4.53;;;22.50;66.20;;;;;;6220315;28;89399;-70
2022/01/16 06:51:39;;;;;;;5.18;4.68;;;22.50;66.20;;;;;;6208808;28;90061;-70
2022/01/16 06:54:41;;;;;;;4.63;4.22;;;22.50;66.20;;;;;;6218670;28;89068;-70
2022/01/16 06:57:43;;;;;;;4.70;4.30;;;22.50;66.20;;;;;;6222187;28;88264;-70
2022/01/16 07:00:46;;;;;;;6.63;4.00;;;22.50;66.20;;;;;;6229014;28;88012;-70
2022/01/16 07:03:49;;;;;;;4.70;4.10;;;22.50;66.20;;;;;;6225668;28;89068;-70
2022/01/16 07:06:50;;;;;;;4.53;4.13;;;22.50;66.20;;;;;;6216782;28;89118;-71
2022/01/16 07:09:52;;;;;;;4.35;4.05;;;22.50;66.30;;;;;;6212808;28;89090;-69
2022/01/16 07:12:54;;;;;;;4.78;4.38;;;22.50;66.20;;;;;;6208938;28;88322;-70
2022/01/16 07:15:58;;;;;;;5.18;4.68;;;22.50;67.00;;;;;;6213650;28;89019;-70
2022/01/16 07:19:00;;;;;;;5.65;4.65;;;22.50;66.10;;;;;;6213926;28;89004;-69
2022/01/16 07:22:02;;;;;;;5.10;4.70;;;22.50;66.10;;;;;;6211078;28;90085;-69
2022/01/16 07:25:05;;;;;;;5.55;4.95;;;22.50;66.10;;;;;;6211802;28;89190;-70
2022/01/16 07:28:07;;;;;;;4.75;4.32;;;22.50;66.00;;;;;;6212002;28;89176;-69
2022/01/16 07:31:10;;;;;;;5.15;4.65;;;22.50;65.90;;;;;;6215831;28;89074;-71
2022/01/16 07:34:12;;;;;;;4.70;4.30;;;22.50;65.90;;;;;;6217155;28;88258;-69
2022/01/16 07:37:14;;;;;;;5.03;4.50;;;22.60;66.10;;;;;;6206304;28;89082;-69
2022/01/16 07:40:17;;;;;;;4.55;4.15;;;22.60;66.00;;;;;;6219625;28;89006;-68
2022/01/16 07:43:19;;;;;;;5.70;4.20;;;22.60;66.10;;;;;;6223555;28;88652;-69
2022/01/16 07:46:22;;;;;;;4.50;4.10;;;22.60;66.50;;;;;;6226985;28;87962;-69
2022/01/16 07:49:24;;;;;;;4.97;4.50;;;22.60;66.60;;;;;;6212595;28;89088;-69
2022/01/16 07:52:26;;;;;;;4.35;3.95;;;22.60;66.70;;;;;;6213238;28;90003;-68
2022/01/16 07:55:28;;;;;;;4.35;3.95;;;22.60;66.70;;;;;;6230302;28;88959;-68
2022/01/16 07:58:30;;;;;;;4.35;3.95;;;22.60;66.80;;;;;;6213148;28;88269;-69
2022/01/16 08:01:34;;;;;;;5.18;4.22;;;22.60;66.70;;;;;;6217600;28;89033;-68
2022/01/16 08:04:36;;;;;;;4.43;4.03;;;22.60;66.70;;;;;;6216033;28;89070;-70
2022/01/16 08:07:38;;;;;;;4.40;4.00;;;22.70;66.80;;;;;;6219086;28;87979;-69
2022/01/16 08:10:41;;;;;;;4.72;4.32;;;22.70;66.60;;;;;;6219334;28;87955;-69
2022/01/16 08:13:43;;;;;;;4.55;4.10;;;22.70;66.40;;;;;;6221578;28;88382;-70
2022/01/16 08:16:46;;;;;;;4.40;4.00;;;22.70;66.20;;;;;;6213428;28;89083;-69
2022/01/16 08:19:48;;;;;;;4.40;4.00;;;22.70;66.20;;;;;;6223299;28;89089;-71
2022/01/16 08:22:51;;;;;;;4.00;3.70;;;22.70;66.20;;;;;;6214593;28;89824;-69
2022/01/16 08:25:53;;;;;;;4.30;3.92;;;22.70;66.20;;;;;;6216585;28;89339;-70
2022/01/16 08:28:54;;;;;;;4.13;3.78;;;22.70;66.20;;;;;;6219958;28;88275;-70
2022/01/16 08:31:58;;;;;;;4.03;3.63;;;22.70;66.20;;;;;;6218264;28;89022;-69
2022/01/16 08:35:00;;;;;;;4.22;3.83;;;22.70;66.10;;;;;;6215853;28;89039;-70
2022/01/16 08:38:02;;;;;;;4.13;3.72;;;22.60;66.20;;;;;;6218395;28;88767;-69
2022/01/16 08:41:05;;;;;;;4.43;4.03;;;22.60;66.10;;;;;;6210532;28;89037;-70
2022/01/16 08:44:07;;;;;;;3.92;3.63;;;22.70;66.20;;;;;;6216484;28;88443;-69
2022/01/16 08:47:10;;;;;;;4.40;4.00;;;22.70;66.20;;;;;;6220492;28;89031;-70
2022/01/16 08:50:14;;;;;;;4.28;3.88;;;22.70;66.20;;;;;;6223014;28;88231;-69
2022/01/16 08:53:16;;;;;;;4.55;4.15;;;22.70;66.10;;;;;;6215741;28;90003;-69
2022/01/16 08:56:20;;;;;;;4.18;3.78;;;22.70;66.10;;;;;;6218127;28;88975;-69
2022/01/16 08:59:22;;;;;;;4.00;3.70;;;22.70;66.00;;;;;;6229784;28;88165;-68
2022/01/16 09:02:25;;;;;;;4.22;3.88;;;22.60;65.90;;;;;;6214891;28;88942;-70
2022/01/16 09:05:28;;;;;;;4.25;3.85;;;22.70;65.90;;;;;;6214115;28;88266;-69
2022/01/16 09:08:30;;;;;;;4.30;3.90;;;22.70;65.80;;;;;;6218456;28;89158;-69
2022/01/16 09:11:32;;;;;;;4.00;3.60;;;22.70;65.70;;;;;;6224192;28;89552;-68
2022/01/16 09:14:34;;;;;;;3.60;3.30;;;22.70;65.90;;;;;;6226702;28;88623;-69
2022/01/16 09:17:38;;;;;;;4.07;3.67;;;22.70;66.30;;;;;;6221049;28;89049;-71
2022/01/16 09:20:40;;;;;;;3.65;3.30;;;22.70;66.60;;;;;;6234142;28;89074;-68
2022/01/16 09:23:42;;;;;;;3.67;3.38;;;22.70;66.60;;;;;;6221000;28;90458;-70
2022/01/16 09:26:44;;;;;;;4.32;3.55;;;22.70;66.90;;;;;;6219729;28;89343;-73
2022/01/16 09:29:46;;;;;;;4.35;3.50;;;22.70;67.20;;;;;;6227089;28;89024;-68
2022/01/16 09:32:50;;;;;;;3.58;3.28;;;22.70;67.20;;;;;;6222253;28;89095;-70
2022/01/16 09:35:52;;;;;;;4.03;3.65;;;22.70;67.10;;;;;;6226511;28;88310;-68
2022/01/16 09:38:54;;;;;;;3.70;3.40;;;22.70;67.20;;;;;;6225201;28;89132;-74
2022/01/16 09:41:57;;;;;;;202.82;101.20;;;22.70;67.70;;;;;;6231216;28;89190;-71
2022/01/16 09:44:59;;;;;;;166.25;84.85;;;22.70;69.30;;;;;;6226965;28;88387;-70
2022/01/16 09:48:03;;;;;;;401.30;199.50;;;22.70;72.20;;;;;;6219841;28;89075;-71
2022/01/16 09:51:05;;;;;;;68.65;36.28;;;22.70;75.20;;;;;;6222515;28;89454;-68
2022/01/16 09:54:09;;;;;;;32.88;18.23;;;22.70;67.70;;;;;;6222274;28;90233;-70
2022/01/16 09:57:12;;;;;;;22.10;13.85;;;22.70;65.40;;;;;;6220727;28;89266;-68
2022/01/16 10:00:17;;;;;;;18.48;11.65;;;22.70;64.00;;;;;;6225763;28;89053;-72
2022/01/16 10:03:37;;;;;;;17.42;10.38;;;22.70;64.00;;;;;;6210577;28;89225;-70
2022/01/16 10:06:39;;;;;;;32.45;12.23;;;22.70;67.40;;;;;;6217679;28;89034;-71
2022/01/16 10:09:44;;;;;;;15.38;8.85;;;22.60;65.50;;;;;;6210996;28;87973;-70
2022/01/16 10:12:51;;;;;;;10.85;8.13;;;22.60;65.40;;;;;;6223568;28;88020;-70
2022/01/16 10:15:55;;;;;;;11.20;7.60;;;22.60;65.00;;;;;;6215479;28;88688;-72
2022/01/16 10:18:59;;;;;;;10.93;7.43;;;22.60;64.70;;;;;;6216919;28;88971;-71
2022/01/16 10:22:05;;;;;;;10.18;7.05;;;22.60;64.40;;;;;;6211421;28;89090;-68
2022/01/16 10:25:08;;;;;;;7.78;6.97;;;22.50;63.70;;;;;;6216338;28;90080;-70
2022/01/16 10:28:14;;;;;;;8.35;7.03;;;22.50;63.40;;;;;;6211952;28;89111;-68
2022/01/16 10:31:20;;;;;;;7.43;6.63;;;22.50;62.80;;;;;;6210785;28;88959;-69
2022/01/16 10:34:33;;;;;;;6.88;6.25;;;22.50;62.40;;;;;;6214242;28;88021;-70
2022/01/16 10:37:36;;;;;;;7.18;6.38;;;22.50;61.70;;;;;;6213317;28;90711;-70
2022/01/16 10:40:39;;;;;;;7.10;6.40;;;22.50;61.20;;;;;;6210741;28;88000;-71
2022/01/16 10:43:43;;;;;;;6.72;6.05;;;22.40;60.90;;;;;;6206328;28;87997;-70
2022/01/16 10:46:45;;;;;;;7.10;6.30;;;22.50;60.90;;;;;;6212804;28;88339;-70
2022/01/16 10:49:58;;;;;;;6.72;6.13;;;22.50;60.60;;;;;;6220258;28;89040;-70
2022/01/16 10:53:03;;;;;;;6.20;5.60;;;22.50;60.30;;;;;;6212672;28;89392;-70
2022/01/16 10:56:05;;;;;;;6.10;5.50;;;22.40;61.00;;;;;;6212524;28;90123;-70
2022/01/16 10:59:22;;;;;;;6.07;5.50;;;22.50;61.10;;;;;;6217302;28;89142;-69
2022/01/16 11:02:24;;;;;;;5.07;4.68;;;22.40;61.40;;;;;;6216697;28;89088;-70
2022/01/16 11:05:28;;;;;;;4.95;4.55;;;22.40;61.60;;;;;;6215500;28;89087;-71
2022/01/16 11:08:31;;;;;;;5.60;5.10;;;22.40;61.80;;;;;;6210691;28;89134;-70
2022/01/16 11:11:33;;;;;;;6.00;5.50;;;22.40;62.00;;;;;;6209176;28;89150;-70
2022/01/16 11:14:35;;;;;;;5.63;5.13;;;22.40;60.70;;;;;;6217345;28;89039;-69
2022/01/16 11:17:38;;;;;;;5.28;4.78;;;22.40;60.50;;;;;;6209096;28;87042;-71
2022/01/16 11:20:52;;;;;;;7.32;6.05;;;22.40;61.80;;;;;;6210316;28;89156;-71
2022/01/16 11:24:12;;;;;;;8.00;7.00;;;22.40;60.80;;;;;;6211099;28;89299;-71
2022/01/16 11:27:16;;;;;;;8.27;6.35;;;22.30;60.00;;;;;;6208992;28;90167;-71
2022/01/16 11:30:19;;;;;;;7.93;6.30;;;22.30;58.70;;;;;;6211124;28;89233;-73
2022/01/16 11:33:23;;;;;;;5.65;4.97;;;22.30;59.10;;;;;;6209894;28;87912;-72
2022/01/16 11:36:28;;;;;;;7.60;5.28;;;22.30;59.80;;;;;;6220208;28;89167;-72
2022/01/16 11:39:35;;;;;;;5.35;4.50;;;22.30;60.30;;;;;;6219673;28;89052;-72
2022/01/16 11:42:37;;;;;;;4.45;4.05;;;22.30;61.00;;;;;;6215064;28;89345;-72
2022/01/16 11:45:47;;;;;;;7.05;4.25;;;22.30;61.30;;;;;;6206814;28;89449;-72
2022/01/16 11:48:53;;;;;;;8.38;4.18;;;22.30;62.10;;;;;;6226054;28;88314;-71
2022/01/16 11:52:07;;;;;;;4.55;4.00;;;22.40;62.30;;;;;;6220110;28;89009;-71
2022/01/16 11:55:12;;;;;;;5.75;4.00;;;22.40;62.70;;;;;;6218882;28;89101;-70
2022/01/16 11:58:14;;;;;;;3.90;3.45;;;22.40;62.80;;;;;;6209063;28;89987;-72
2022/01/16 12:01:44;;;;;;;4.40;3.88;;;22.40;62.90;;;;;;6222309;28;88285;-71
2022/01/16 12:05:04;;;;;;;6.68;3.50;;;22.40;63.20;;;;;;6219939;28;89116;-71
2022/01/16 12:08:12;;;;;;;3.72;3.35;;;22.40;63.50;;;;;;6227239;28;89123;-70
2022/01/16 12:11:36;;;;;;;4.00;3.60;;;22.40;63.60;;;;;;6228447;28;89043;-71
2022/01/16 12:14:48;;;;;;;4.82;3.50;;;22.40;63.70;;;;;;6224132;28;89034;-71
2022/01/16 12:17:51;;;;;;;7.28;3.45;;;22.40;64.00;;;;;;6230075;28;89066;-71
2022/01/16 12:20:53;;;;;;;6.25;3.60;;;22.40;64.40;;;;;;6231299;28;87403;-71
2022/01/16 12:23:56;;;;;;;4.53;3.40;;;22.40;64.50;;;;;;6222598;28;89211;-71
2022/01/16 12:27:23;;;;;;;5.03;3.67;;;22.50;64.40;;;;;;6226874;28;89010;-71
2022/01/16 12:30:48;;;;;;;4.28;3.47;;;22.50;64.60;;;;;;6222941;28;89977;-71
2022/01/16 12:33:52;;;;;;;3.42;3.00;;;22.50;64.60;;;;;;6224030;28;89063;-71
2022/01/16 12:36:54;;;;;;;6.10;3.20;;;22.50;64.60;;;;;;6223020;28;89066;-71
2022/01/16 12:39:58;;;;;;;4.25;3.10;;;22.50;64.80;;;;;;6225054;28;89353;-72
2022/01/16 12:43:00;;;;;;;4.63;3.30;;;22.50;65.00;;;;;;6226706;28;89016;-71
2022/01/16 12:46:05;;;;;;;4.63;3.33;;;22.50;65.20;;;;;;6225673;28;90358;-71
2022/01/16 12:49:10;;;;;;;4.82;3.33;;;22.50;65.30;;;;;;6223901;28;88630;-69
2022/01/16 12:52:14;;;;;;;4.50;2.90;;;22.50;65.20;;;;;;6229012;28;87385;-71
2022/01/16 12:55:17;;;;;;;3.50;3.20;;;22.50;65.40;;;;;;6214205;28;89079;-70
2022/01/16 12:58:21;;;;;;;3.10;2.80;;;22.50;65.50;;;;;;6229637;28;89080;-70
2022/01/16 13:01:24;;;;;;;3.75;3.10;;;22.50;65.60;;;;;;6236169;28;90071;-70
2022/01/16 13:04:29;;;;;;;3.20;2.90;;;22.50;65.60;;;;;;6230765;28;89105;-70
2022/01/16 13:07:32;;;;;;;3.28;2.95;;;22.50;65.70;;;;;;6227226;28;88249;-70
2022/01/16 13:10:35;;;;;;;4.30;2.90;;;22.50;65.80;;;;;;6234439;28;88232;-70
2022/01/16 13:13:37;;;;;;;3.00;2.80;;;22.50;65.80;;;;;;6235511;28;89460;-68
2022/01/16 13:16:41;;;;;;;4.85;2.85;;;22.40;65.70;;;;;;6233584;28;89402;-69
2022/01/16 13:19:51;;;;;;;4.30;2.83;;;22.40;65.80;;;;;;6234913;28;89078;-70
2022/01/16 13:22:57;;;;;;;4.47;3.00;;;22.40;65.80;;;;;;6234078;28;88424;-70
2022/01/16 13:26:00;;;;;;;3.75;3.00;;;22.40;65.90;;;;;;6219557;28;87943;-69
2022/01/16 13:29:04;;;;;;;3.60;2.83;;;22.40;66.00;;;;;;6226747;28;89317;-70
2022/01/16 13:32:08;;;;;;;4.20;3.03;;;22.40;66.00;;;;;;6228360;28;90062;-69
2022/01/16 13:35:21;;;;;;;3.60;3.30;;;22.40;66.10;;;;;;6219178;28;88021;-69
2022/01/16 13:38:30;;;;;;;4.35;3.85;;;22.40;66.10;;;;;;6226976;28;89133;-70
2022/01/16 13:41:34;;;;;;;5.30;3.90;;;22.40;66.10;;;;;;6231508;28;89089;-70
2022/01/16 13:44:36;;;;;;;4.30;3.90;;;22.40;66.10;;;;;;6234898;28;89344;-70
2022/01/16 13:47:38;;;;;;;4.55;4.05;;;22.40;66.10;;;;;;6221177;28;89153;-70
2022/01/16 13:50:43;;;;;;;5.22;4.70;;;22.40;66.20;;;;;;6233696;28;88999;-70
2022/01/16 13:53:45;;;;;;;6.00;4.82;;;22.40;66.10;;;;;;6234126;28;88693;-72
2022/01/16 13:56:53;;;;;;;5.13;4.63;;;22.40;66.10;;;;;;6219925;28;89411;-72
2022/01/16 13:59:59;;;;;;;5.97;5.30;;;22.40;66.20;;;;;;6232506;28;89016;-72
2022/01/16 14:03:16;;;;;;;6.05;5.10;;;22.40;66.20;;;;;;6233289;28;90072;-72
2022/01/16 14:06:19;;;;;;;5.45;4.95;;;22.40;66.20;;;;;;6221398;28;89359;-72
2022/01/16 14:09:22;;;;;;;5.88;5.28;;;22.40;66.10;;;;;;6221265;28;89029;-72
2022/01/16 14:12:26;;;;;;;5.88;5.38;;;22.40;66.10;;;;;;6233839;28;88901;-72
2022/01/16 14:15:28;;;;;;;6.15;5.65;;;22.40;66.10;;;;;;6218281;28;89066;-72
2022/01/16 14:18:42;;;;;;;6.38;5.78;;;22.40;66.10;;;;;;6231577;28;89400;-73
2022/01/16 14:25:07;;;;;;;7.00;6.30;;;22.40;66.00;;;;;;6230224;28;86570;-73
2022/01/16 14:28:10;;;;;;;7.22;6.55;;;22.40;66.00;;;;;;6233331;28;89038;-72
2022/01/16 14:31:12;;;;;;;6.63;6.03;;;22.50;66.10;;;;;;6232111;28;87863;-73
2022/01/16 14:34:16;;;;;;;6.60;6.00;;;22.40;66.10;;;;;;6229925;28;90308;-73
2022/01/16 14:37:18;;;;;;;6.70;6.10;;;22.40;66.10;;;;;;6227813;28;87863;-72
2022/01/16 14:40:21;;;;;;;6.78;6.13;;;22.40;66.10;;;;;;6218067;28;89447;-73
2022/01/16 14:43:24;;;;;;;7.07;6.40;;;22.40;66.10;;;;;;6229607;28;89072;-73
2022/01/16 14:46:28;;;;;;;7.40;6.70;;;22.40;66.10;;;;;;6219322;28;89208;-72
2022/01/16 14:49:30;;;;;;;7.13;6.45;;;22.40;66.10;;;;;;6223669;28;89477;-73
2022/01/16 14:52:32;;;;;;;7.45;6.75;;;22.40;66.10;;;;;;6224311;28;89394;-72
2022/01/16 14:55:38;;;;;;;7.47;6.20;;;22.40;66.10;;;;;;6233666;28;87936;-72
2022/01/16 14:58:42;;;;;;;7.72;7.00;;;22.40;66.10;;;;;;6230584;28;89110;-72
2022/01/16 15:01:45;;;;;;;7.25;6.53;;;22.40;66.10;;;;;;6230306;28;89107;-72
2022/01/16 15:04:47;;;;;;;7.07;6.47;;;22.40;66.10;;;;;;6219133;28;89996;-72
2022/01/16 15:07:49;;;;;;;7.53;6.78;;;22.40;66.10;;;;;;6204844;28;89458;-77
2022/01/16 15:10:51;;;;;;;7.70;7.00;;;22.40;66.10;;;;;;6225944;28;88011;-72
2022/01/16 15:13:56;;;;;;;7.93;7.13;;;22.40;66.50;;;;;;6219579;28;89310;-71
2022/01/16 15:16:58;;;;;;;7.38;6.68;;;22.50;66.70;;;;;;6209676;28;89074;-71
2022/01/16 15:20:04;;;;;;;7.72;7.03;;;22.50;66.70;;;;;;6217697;28;89065;-72
2022/01/16 15:23:06;;;;;;;7.47;6.78;;;22.50;66.70;;;;;;6212703;28;89285;-71
2022/01/16 15:26:08;;;;;;;7.78;6.72;;;22.40;66.70;;;;;;6215241;28;88666;-72
2022/01/16 15:29:13;;;;;;;7.47;6.72;;;22.40;66.90;;;;;;6212994;28;89163;-72
2022/01/16 15:32:15;;;;;;;7.72;7.03;;;22.40;67.00;;;;;;6206231;28;88139;-72
2022/01/16 15:35:17;;;;;;;7.82;7.03;;;22.50;67.10;;;;;;6211565;28;90258;-71
2022/01/16 15:38:27;;;;;;;7.10;6.40;;;22.50;67.40;;;;;;6212481;28;89129;-72
2022/01/16 15:41:29;;;;;;;7.68;6.97;;;22.40;67.40;;;;;;6204300;28;89404;-72
2022/01/16 15:44:32;;;;;;;7.47;6.78;;;22.50;67.60;;;;;;6215033;28;89080;-72
2022/01/16 15:47:34;;;;;;;8.13;7.32;;;22.40;67.70;;;;;;6218366;28;89007;-72
2022/01/16 15:50:36;;;;;;;8.02;7.22;;;22.50;68.00;;;;;;6206245;28;88992;-72
2022/01/16 15:53:38;;;;;;;7.65;6.90;;;22.40;68.10;;;;;;6207246;28;89030;-72
2022/01/16 15:56:40;;;;;;;7.38;6.68;;;22.40;68.30;;;;;;6216615;28;88265;-72
2022/01/16 15:59:44;;;;;;;7.82;7.13;;;22.40;68.40;;;;;;6208072;28;88991;-72
2022/01/16 16:02:46;;;;;;;7.13;6.43;;;22.50;68.60;;;;;;6211941;28;88970;-72
2022/01/16 16:05:48;;;;;;;7.35;6.65;;;22.40;68.90;;;;;;6210846;28;89993;-72
2022/01/16 16:08:50;;;;;;;8.00;7.20;;;22.40;69.00;;;;;;6207089;28;89019;-72
2022/01/16 16:11:52;;;;;;;8.02;6.93;;;22.40;69.10;;;;;;6203974;28;89090;-72
2022/01/16 16:15:14;;;;;;;8.10;7.10;;;22.40;69.30;;;;;;6215144;28;89040;-72
2022/01/16 16:18:16;;;;;;;8.38;7.57;;;22.40;69.40;;;;;;6213431;28;88979;-72
2022/01/16 16:21:19;;;;;;;8.27;7.47;;;22.40;69.60;;;;;;6215526;28;87959;-71
2022/01/16 16:24:21;;;;;;;9.50;7.43;;;22.40;69.70;;;;;;6207483;28;88042;-72
2022/01/16 16:27:23;;;;;;;9.25;8.27;;;22.40;69.90;;;;;;6221361;28;88557;-71
2022/01/16 16:30:28;;;;;;;8.68;7.78;;;22.30;70.00;;;;;;6220007;28;89168;-73
2022/01/16 16:33:49;;;;;;;8.65;7.65;;;22.30;70.20;;;;;;6224717;28;88980;-72